createdAt,value
2019-02-02T00:01:07.677Z,99.90
2019-02-02T00:03:36.606Z,99.90
2019-02-02T00:06:05.722Z,99.90
2019-02-02T00:08:38.377Z,99.90
2019-02-02T00:11:07.997Z,99.90
2019-02-02T00:13:36.951Z,99.90
2019-02-02T00:16:06.191Z,99.90
2019-02-02T00:18:35.066Z,99.90
2019-02-02T00:21:03.968Z,99.90
2019-02-02T00:23:32.903Z,99.90
2019-02-02T00:26:01.746Z,99.90
2019-02-02T00:28:30.666Z,99.90
2019-02-02T00:30:59.512Z,99.90
2019-02-02T00:33:28.401Z,99.90
2019-02-02T00:35:57.325Z,99.90
2019-02-02T00:38:26.195Z,99.90
2019-02-02T00:40:55.115Z,99.90
2019-02-02T00:43:24.035Z,99.90
2019-02-02T00:45:53.059Z,99.90
2019-02-02T00:48:21.935Z,99.90
2019-02-02T00:50:50.814Z,99.90
2019-02-02T00:53:19.744Z,99.90
2019-02-02T00:55:55.766Z,99.90
2019-02-02T00:58:24.746Z,99.90
2019-02-02T01:00:54.195Z,99.90
2019-02-02T01:03:23.642Z,99.90
2019-02-02T01:05:52.992Z,99.90
2019-02-02T01:08:22.052Z,99.90
2019-02-02T01:10:51.252Z,99.90
2019-02-02T01:13:21.002Z,99.90
2019-02-02T01:15:50.341Z,99.90
2019-02-02T01:18:19.586Z,99.90
2019-02-02T01:20:48.952Z,99.90
2019-02-02T01:23:18.221Z,99.90
2019-02-02T01:25:47.402Z,99.90
2019-02-02T01:28:16.714Z,99.90
2019-02-02T01:30:45.872Z,99.90
2019-02-02T01:33:15.032Z,99.90
2019-02-02T01:35:44.361Z,99.90
2019-02-02T01:38:13.591Z,99.90
2019-02-02T01:40:42.702Z,99.90
2019-02-02T01:43:12.052Z,99.90
2019-02-02T01:45:41.222Z,99.90
2019-02-02T01:48:10.431Z,99.90
2019-02-02T01:50:39.368Z,99.90
2019-02-02T01:53:08.291Z,99.90
2019-02-02T01:55:37.201Z,99.90
2019-02-02T01:58:15.999Z,99.90
2019-02-02T02:00:37.074Z,99.90
2019-02-02T02:03:06.130Z,99.90
2019-02-02T02:05:35.005Z,99.90
2019-02-02T02:08:04.025Z,99.90
2019-02-02T02:10:32.949Z,99.90
2019-02-02T02:13:01.853Z,99.90
2019-02-02T02:15:30.720Z,99.90
2019-02-02T02:17:59.841Z,99.90
2019-02-02T02:20:28.812Z,99.90
2019-02-02T02:22:57.727Z,99.90
2019-02-02T02:25:26.598Z,99.90
2019-02-02T02:27:55.458Z,99.90
2019-02-02T02:30:24.966Z,99.90
2019-02-02T02:32:54.475Z,99.90
2019-02-02T02:35:23.751Z,99.90
2019-02-02T02:37:53.142Z,99.90
2019-02-02T02:40:24.445Z,99.90
2019-02-02T02:42:54.112Z,99.90
2019-02-02T02:45:23.406Z,99.90
2019-02-02T02:47:52.694Z,99.90
2019-02-02T02:50:22.798Z,99.90
2019-02-02T02:52:52.202Z,99.90
2019-02-02T02:55:21.261Z,99.90
2019-02-02T02:57:50.693Z,99.90
2019-02-02T03:00:27.690Z,99.90
2019-02-02T03:02:56.677Z,99.90
2019-02-02T03:05:25.706Z,99.90
2019-02-02T03:07:55.312Z,99.90
2019-02-02T03:10:25.713Z,99.90
2019-02-02T03:12:55.161Z,99.90
2019-02-02T03:15:24.091Z,99.90
2019-02-02T03:18:00.826Z,99.90
2019-02-02T03:20:30.457Z,99.90
2019-02-02T03:22:59.585Z,99.90
2019-02-02T03:25:28.877Z,99.90
2019-02-02T03:27:58.183Z,99.90
2019-02-02T03:30:27.877Z,99.90
2019-02-02T03:32:57.033Z,99.90
2019-02-02T03:35:25.984Z,99.90
2019-02-02T03:37:54.870Z,99.90
2019-02-02T03:40:24.183Z,99.90
2019-02-02T03:42:53.197Z,99.90
2019-02-02T03:45:24.477Z,99.90
2019-02-02T03:47:54.286Z,99.90
2019-02-02T03:50:23.267Z,99.90
2019-02-02T03:52:52.387Z,99.90
2019-02-02T03:55:21.435Z,99.90
2019-02-02T03:57:50.402Z,99.90
2019-02-02T04:00:22.981Z,99.90
2019-02-02T04:02:51.987Z,99.90
2019-02-02T04:05:30.425Z,99.90
2019-02-02T04:07:59.473Z,99.90
2019-02-02T04:10:28.418Z,99.90
2019-02-02T04:12:57.360Z,99.90
2019-02-02T04:15:26.311Z,99.90
2019-02-02T04:17:55.219Z,99.90
2019-02-02T04:20:24.342Z,99.90
2019-02-02T04:22:53.212Z,99.90
2019-02-02T04:25:22.900Z,99.90
2019-02-02T04:27:51.960Z,99.90
2019-02-02T04:30:25.935Z,99.90
2019-02-02T04:32:54.943Z,99.90
2019-02-02T04:35:24.264Z,99.90
2019-02-02T04:37:53.170Z,99.90
2019-02-02T04:40:22.138Z,99.90
2019-02-02T04:42:51.097Z,99.90
2019-02-02T04:45:19.994Z,99.90
2019-02-02T04:47:48.988Z,99.90
2019-02-02T04:50:19.695Z,99.90
2019-02-02T04:52:57.764Z,99.90
2019-02-02T04:55:30.062Z,99.90
2019-02-02T04:57:59.252Z,99.90
2019-02-02T05:00:28.532Z,99.90
2019-02-02T05:02:57.421Z,99.90
2019-02-02T05:05:26.419Z,99.90
2019-02-02T05:07:55.404Z,99.90
2019-02-02T05:10:25.122Z,99.90
2019-02-02T05:12:54.113Z,99.90
2019-02-02T05:15:23.096Z,99.90
2019-02-02T05:17:52.017Z,99.90
2019-02-02T05:20:21.429Z,99.90
2019-02-02T05:22:50.341Z,99.90
2019-02-02T05:25:19.377Z,99.90
2019-02-02T05:27:48.301Z,99.90
2019-02-02T05:30:22.862Z,99.90
2019-02-02T05:32:51.743Z,99.90
2019-02-02T05:35:20.668Z,99.90
2019-02-02T05:37:49.519Z,99.90
2019-02-02T05:40:23.336Z,99.90
2019-02-02T05:42:52.292Z,99.90
2019-02-02T05:45:29.828Z,99.90
2019-02-02T05:47:59.371Z,99.90
2019-02-02T05:50:28.342Z,99.90
2019-02-02T05:52:57.342Z,99.90
2019-02-02T05:55:26.851Z,99.90
2019-02-02T05:57:56.123Z,99.90
2019-02-02T06:00:43.752Z,99.90
2019-02-02T06:03:13.121Z,99.90
2019-02-02T06:05:42.332Z,99.90
2019-02-02T06:08:11.552Z,99.90
2019-02-02T06:10:40.881Z,99.90
2019-02-02T06:13:10.503Z,99.90
2019-02-02T06:15:39.752Z,99.90
2019-02-02T06:18:08.882Z,99.90
2019-02-02T06:20:38.002Z,99.90
2019-02-02T06:23:08.242Z,99.90
2019-02-02T06:25:37.672Z,99.90
2019-02-02T06:28:07.015Z,99.90
2019-02-02T06:30:36.021Z,99.90
2019-02-02T06:33:08.941Z,99.90
2019-02-02T06:35:38.113Z,99.90
2019-02-02T06:38:07.242Z,99.90
2019-02-02T06:40:36.612Z,99.90
2019-02-02T06:43:05.921Z,99.90
2019-02-02T06:45:37.232Z,99.90
2019-02-02T06:48:06.772Z,99.90
2019-02-02T06:50:35.942Z,99.90
2019-02-02T06:53:05.871Z,99.90
2019-02-02T06:55:35.145Z,99.90
2019-02-02T06:58:04.362Z,99.90
2019-02-02T07:00:33.422Z,99.90
2019-02-02T07:03:02.631Z,99.90
2019-02-02T07:05:33.790Z,99.90
2019-02-02T07:08:02.202Z,99.90
2019-02-02T07:10:31.269Z,99.90
2019-02-02T07:13:00.123Z,99.90
2019-02-02T07:15:30.508Z,99.90
2019-02-02T07:17:59.403Z,99.90
2019-02-02T07:20:28.662Z,99.90
2019-02-02T07:22:57.962Z,99.90
2019-02-02T07:25:27.701Z,99.90
2019-02-02T07:27:57.425Z,99.90
2019-02-02T07:30:29.025Z,99.90
2019-02-02T07:32:58.382Z,99.90
2019-02-02T07:35:28.201Z,99.90
2019-02-02T07:37:57.553Z,99.90
2019-02-02T07:40:26.644Z,99.90
2019-02-02T07:42:56.231Z,99.90
2019-02-02T07:45:31.280Z,99.90
2019-02-02T07:48:00.119Z,99.90
2019-02-02T07:50:29.098Z,99.90
2019-02-02T07:52:58.042Z,99.90
2019-02-02T07:55:26.932Z,99.90
2019-02-02T07:57:55.813Z,99.90
2019-02-02T08:00:39.608Z,99.90
2019-02-02T08:02:58.427Z,99.90
2019-02-02T08:05:27.441Z,99.90
2019-02-02T08:08:03.822Z,99.90
2019-02-02T08:10:32.789Z,99.90
2019-02-02T08:13:01.708Z,99.90
2019-02-02T08:15:32.982Z,99.90
2019-02-02T08:18:01.876Z,99.90
2019-02-02T08:20:30.756Z,99.90
2019-02-02T08:22:59.687Z,99.90
2019-02-02T08:25:28.883Z,99.90
2019-02-02T08:27:58.291Z,99.90
2019-02-02T08:30:31.571Z,99.90
2019-02-02T08:33:01.032Z,99.90
2019-02-02T08:35:30.525Z,99.90
2019-02-02T08:38:00.291Z,99.90
2019-02-02T08:40:29.552Z,99.90
2019-02-02T08:42:58.751Z,99.90
2019-02-02T08:45:27.923Z,99.90
2019-02-02T08:47:56.932Z,99.90
2019-02-02T08:50:34.895Z,99.90
2019-02-02T08:53:03.774Z,99.90
2019-02-02T08:55:43.634Z,99.90
2019-02-02T08:58:12.581Z,99.90
2019-02-02T09:00:41.438Z,99.90
2019-02-02T09:03:10.366Z,99.90
2019-02-02T09:05:39.258Z,99.90
2019-02-02T09:08:08.261Z,99.90
2019-02-02T09:10:37.177Z,99.90
2019-02-02T09:13:06.071Z,99.90
2019-02-02T09:15:35.119Z,99.90
2019-02-02T09:18:04.291Z,99.90
2019-02-02T09:20:33.207Z,99.90
2019-02-02T09:23:06.176Z,99.90
2019-02-02T09:25:32.691Z,99.90
2019-02-02T09:28:01.586Z,99.90
2019-02-02T09:30:32.633Z,99.90
2019-02-02T09:33:01.572Z,99.90
2019-02-02T09:35:30.974Z,99.90
2019-02-02T09:37:59.896Z,99.90
2019-02-02T09:40:28.869Z,99.90
2019-02-02T09:42:58.182Z,99.90
2019-02-02T09:45:27.712Z,99.90
2019-02-02T09:47:56.981Z,99.90
2019-02-02T09:50:29.051Z,99.90
2019-02-02T09:52:58.202Z,99.90
2019-02-02T09:55:28.131Z,99.90
2019-02-02T09:58:00.125Z,99.90
2019-02-02T10:00:31.483Z,99.90
2019-02-02T10:03:00.771Z,99.90
2019-02-02T10:05:31.081Z,99.90
2019-02-02T10:08:00.341Z,99.90
2019-02-02T10:10:32.041Z,99.90
2019-02-02T10:13:01.194Z,99.90
2019-02-02T10:15:30.501Z,99.90
2019-02-02T10:17:59.661Z,99.90
2019-02-02T10:20:31.322Z,99.90
2019-02-02T10:23:01.201Z,99.90
2019-02-02T10:25:31.662Z,99.90
2019-02-02T10:28:02.232Z,99.90
2019-02-02T10:30:33.227Z,99.90
2019-02-02T10:33:02.083Z,99.90
2019-02-02T10:35:31.177Z,99.90
2019-02-02T10:38:00.199Z,99.90
2019-02-02T10:40:29.990Z,99.90
2019-02-02T10:42:59.543Z,99.90
2019-02-02T10:45:28.395Z,99.90
2019-02-02T10:47:57.576Z,99.90
2019-02-02T10:50:27.279Z,99.90
2019-02-02T10:52:56.326Z,99.90
2019-02-02T10:55:25.182Z,99.90
2019-02-02T10:57:54.025Z,99.90
2019-02-02T11:00:25.915Z,99.90
2019-02-02T11:02:54.948Z,99.90
2019-02-02T11:05:23.930Z,99.90
2019-02-02T11:07:54.593Z,99.90
2019-02-02T11:10:26.029Z,99.90
2019-02-02T11:12:55.157Z,99.90
2019-02-02T11:15:24.789Z,99.90
2019-02-02T11:17:54.444Z,99.90
2019-02-02T11:20:29.001Z,99.90
2019-02-02T11:22:58.525Z,99.90
2019-02-02T11:25:27.933Z,99.90
2019-02-02T11:27:57.032Z,99.90
2019-02-02T11:30:27.942Z,99.90
2019-02-02T11:32:57.351Z,99.90
2019-02-02T11:35:26.783Z,99.70
2019-02-02T11:37:55.946Z,99.40
2019-02-02T11:40:29.511Z,98.40
2019-02-02T11:42:58.902Z,97.50
2019-02-02T11:45:28.272Z,98.70
2019-02-02T11:47:57.683Z,98.60
2019-02-02T11:50:27.323Z,98.90
2019-02-02T11:52:56.932Z,98.50
2019-02-02T11:55:27.493Z,99.00
2019-02-02T11:57:57.023Z,99.90
2019-02-02T12:00:35.192Z,99.90
2019-02-02T12:03:04.629Z,99.90
2019-02-02T12:05:33.869Z,99.90
2019-02-02T12:08:02.897Z,99.90
2019-02-02T12:10:33.556Z,99.80
2019-02-02T12:13:02.455Z,99.50
2019-02-02T12:15:31.403Z,99.70
2019-02-02T12:18:00.422Z,99.10
2019-02-02T12:20:29.498Z,98.20
2019-02-02T12:22:58.357Z,98.60
2019-02-02T12:25:27.375Z,97.00
2019-02-02T12:27:56.263Z,95.90
2019-02-02T12:30:30.943Z,95.70
2019-02-02T12:33:03.045Z,95.80
2019-02-02T12:35:30.621Z,95.80
2019-02-02T12:37:59.759Z,95.20
2019-02-02T12:40:28.987Z,93.00
2019-02-02T12:42:57.975Z,92.60
2019-02-02T12:45:41.527Z,90.90
2019-02-02T12:48:10.545Z,91.40
2019-02-02T12:50:48.233Z,91.70
2019-02-02T12:53:17.394Z,92.00
2019-02-02T12:55:46.320Z,92.30
2019-02-02T12:58:15.182Z,93.30
2019-02-02T13:00:44.495Z,93.00
2019-02-02T13:03:13.541Z,91.70
2019-02-02T13:05:42.460Z,90.90
2019-02-02T13:08:11.306Z,87.50
2019-02-02T13:10:40.378Z,86.10
2019-02-02T13:13:09.351Z,81.50
2019-02-02T13:15:38.289Z,79.70
2019-02-02T13:18:07.310Z,77.40
2019-02-02T13:20:36.229Z,74.90
2019-02-02T13:23:05.261Z,69.30
2019-02-02T13:25:34.230Z,70.50
2019-02-02T13:28:03.208Z,64.30
2019-02-02T13:30:34.322Z,65.40
2019-02-02T13:33:03.243Z,68.10
2019-02-02T13:35:34.483Z,68.10
2019-02-02T13:38:08.911Z,72.60
2019-02-02T13:40:38.392Z,78.30
2019-02-02T13:43:07.621Z,80.30
2019-02-02T13:45:36.931Z,82.10
2019-02-02T13:48:06.671Z,84.70
2019-02-02T13:50:36.043Z,86.50
2019-02-02T13:53:05.911Z,88.40
2019-02-02T13:55:35.131Z,90.60
2019-02-02T13:58:04.561Z,91.60
2019-02-02T14:00:35.021Z,92.00
2019-02-02T14:03:04.279Z,92.50
2019-02-02T14:05:33.641Z,93.00
2019-02-02T14:08:04.012Z,92.90
2019-02-02T14:10:34.691Z,92.40
2019-02-02T14:13:04.311Z,92.70
2019-02-02T14:15:34.441Z,92.50
2019-02-02T14:18:03.752Z,92.40
2019-02-02T14:20:33.171Z,93.10
2019-02-02T14:23:02.455Z,92.60
2019-02-02T14:25:31.812Z,92.50
2019-02-02T14:28:01.202Z,93.80
2019-02-02T14:30:30.731Z,93.90
2019-02-02T14:33:00.202Z,94.20
2019-02-02T14:35:29.951Z,94.70
2019-02-02T14:37:59.522Z,94.40
2019-02-02T14:40:28.902Z,94.60
2019-02-02T14:42:58.502Z,94.70
2019-02-02T14:45:28.067Z,94.90
2019-02-02T14:47:57.502Z,96.00
2019-02-02T14:50:27.172Z,95.70
2019-02-02T14:52:56.761Z,95.40
2019-02-02T14:55:28.241Z,95.90
2019-02-02T14:57:57.911Z,95.80
2019-02-02T15:00:29.222Z,94.80
2019-02-02T15:02:59.008Z,95.60
2019-02-02T15:05:28.571Z,96.60
2019-02-02T15:07:59.222Z,96.60
2019-02-02T15:10:28.803Z,95.40
2019-02-02T15:13:17.733Z,94.70
2019-02-02T15:15:47.212Z,95.00
2019-02-02T15:18:16.651Z,94.50
2019-02-02T15:20:46.044Z,94.70
2019-02-02T15:23:15.991Z,94.90
2019-02-02T15:25:45.452Z,95.10
2019-02-02T15:28:14.752Z,95.50
2019-02-02T15:30:44.142Z,95.30
2019-02-02T15:33:13.664Z,95.40
2019-02-02T15:35:43.222Z,96.10
2019-02-02T15:38:12.842Z,96.10
2019-02-02T15:40:42.811Z,96.50
2019-02-02T15:43:13.031Z,97.30
2019-02-02T15:45:42.352Z,97.20
2019-02-02T15:48:11.793Z,97.50
2019-02-02T15:50:41.301Z,97.50
2019-02-02T15:53:10.962Z,97.90
2019-02-02T15:55:40.682Z,97.80
2019-02-02T15:58:11.492Z,98.00
2019-02-02T16:00:48.486Z,99.40
2019-02-02T16:03:18.570Z,99.00
2019-02-02T16:05:47.565Z,99.90
2019-02-02T16:08:16.535Z,99.90
2019-02-02T16:10:45.742Z,99.90
2019-02-02T16:13:14.728Z,99.90
2019-02-02T16:15:45.014Z,99.90
2019-02-02T16:18:14.030Z,99.90
2019-02-02T16:20:44.187Z,99.90
2019-02-02T16:23:13.323Z,99.90
2019-02-02T16:25:42.544Z,99.90
2019-02-02T16:28:11.523Z,99.90
2019-02-02T16:30:40.633Z,99.90
2019-02-02T16:33:09.781Z,99.90
2019-02-02T16:35:38.798Z,99.90
2019-02-02T16:38:07.869Z,99.90
2019-02-02T16:40:36.879Z,99.90
2019-02-02T16:43:06.151Z,99.90
2019-02-02T16:45:35.670Z,99.90
2019-02-02T16:48:05.731Z,99.90
2019-02-02T16:50:34.921Z,99.90
2019-02-02T16:53:04.291Z,99.90
2019-02-02T16:55:33.739Z,99.90
2019-02-02T16:58:03.475Z,99.90
2019-02-02T17:00:34.363Z,99.90
2019-02-02T17:03:03.977Z,99.90
2019-02-02T17:05:33.401Z,99.90
2019-02-02T17:08:02.851Z,99.90
2019-02-02T17:10:34.451Z,99.90
2019-02-02T17:13:03.992Z,99.90
2019-02-02T17:15:33.332Z,99.90
2019-02-02T17:18:02.831Z,99.90
2019-02-02T17:20:37.581Z,99.90
2019-02-02T17:23:06.961Z,99.90
2019-02-02T17:25:36.342Z,99.90
2019-02-02T17:28:06.633Z,99.90
2019-02-02T17:30:36.256Z,99.90
2019-02-02T17:33:10.431Z,99.90
2019-02-02T17:35:39.353Z,99.90
2019-02-02T17:38:08.425Z,99.90
2019-02-02T17:40:37.394Z,99.90
2019-02-02T17:43:06.564Z,99.90
2019-02-02T17:45:35.489Z,99.90
2019-02-02T17:48:04.980Z,99.90
2019-02-02T17:50:34.637Z,99.90
2019-02-02T17:53:03.539Z,99.90
2019-02-02T17:55:32.504Z,99.90
2019-02-02T17:58:01.438Z,99.90
2019-02-02T18:00:37.066Z,99.90
2019-02-02T18:03:06.542Z,99.90
2019-02-02T18:05:35.589Z,99.90
2019-02-02T18:08:04.964Z,99.90
2019-02-02T18:10:34.179Z,99.90
2019-02-02T18:13:03.320Z,99.90
2019-02-02T18:15:32.289Z,99.90
2019-02-02T18:18:02.479Z,99.90
2019-02-02T18:20:45.453Z,99.90
2019-02-02T18:23:17.689Z,99.90
2019-02-02T18:25:45.881Z,99.90
2019-02-02T18:28:15.082Z,99.90
2019-02-02T18:30:44.524Z,99.90
2019-02-02T18:33:14.332Z,99.90
2019-02-02T18:35:43.681Z,99.90
2019-02-02T18:38:13.142Z,99.90
2019-02-02T18:40:42.342Z,99.90
2019-02-02T18:43:11.451Z,99.90
2019-02-02T18:45:40.942Z,99.90
2019-02-02T18:48:10.201Z,99.90
2019-02-02T18:50:39.541Z,99.90
2019-02-02T18:53:08.891Z,99.90
2019-02-02T18:55:41.124Z,99.90
2019-02-02T18:58:10.572Z,99.90
2019-02-02T19:00:39.971Z,99.90
2019-02-02T19:03:09.383Z,99.90
2019-02-02T19:05:39.583Z,99.90
2019-02-02T19:08:08.635Z,99.90
2019-02-02T19:10:42.100Z,99.90
2019-02-02T19:13:14.104Z,99.90
2019-02-02T19:15:43.221Z,99.90
2019-02-02T19:18:12.213Z,99.90
2019-02-02T19:20:41.090Z,99.90
2019-02-02T19:23:10.137Z,99.90
2019-02-02T19:25:39.068Z,99.90
2019-02-02T19:28:08.210Z,99.90
2019-02-02T19:30:37.210Z,99.90
2019-02-02T19:33:06.349Z,99.90
2019-02-02T19:35:35.323Z,99.90
2019-02-02T19:38:04.491Z,99.90
2019-02-02T19:40:33.455Z,99.90
2019-02-02T19:43:02.498Z,99.90
2019-02-02T19:45:32.888Z,99.90
2019-02-02T19:48:01.807Z,99.90
2019-02-02T19:50:30.715Z,99.90
2019-02-02T19:52:59.715Z,99.90
2019-02-02T19:55:29.161Z,99.90
2019-02-02T19:57:58.442Z,99.90
2019-02-02T20:00:33.261Z,99.90
2019-02-02T20:03:03.301Z,99.90
2019-02-02T20:05:33.038Z,99.90
2019-02-02T20:08:02.563Z,99.90
2019-02-02T20:10:32.112Z,99.90
2019-02-02T20:13:00.955Z,99.90
2019-02-02T20:15:29.890Z,99.90
2019-02-02T20:18:09.453Z,99.90
2019-02-02T20:20:29.767Z,99.90
2019-02-02T20:22:58.690Z,99.90
2019-02-02T20:25:27.951Z,99.90
2019-02-02T20:27:56.802Z,99.90
2019-02-02T20:30:28.113Z,99.90
2019-02-02T20:32:57.172Z,99.90
2019-02-02T20:35:26.116Z,99.90
2019-02-02T20:37:54.980Z,99.90
2019-02-02T20:40:29.484Z,99.90
2019-02-02T20:43:06.674Z,99.90
2019-02-02T20:45:45.998Z,99.90
2019-02-02T20:48:14.879Z,99.90
2019-02-02T20:50:44.636Z,99.90
2019-02-02T20:53:13.557Z,99.90
2019-02-02T20:55:44.291Z,99.90
2019-02-02T20:58:13.424Z,99.90
2019-02-02T21:00:42.423Z,99.90
2019-02-02T21:03:11.432Z,99.90
2019-02-02T21:05:51.571Z,99.90
2019-02-02T21:08:10.989Z,99.90
2019-02-02T21:10:40.045Z,99.90
2019-02-02T21:13:09.111Z,99.90
2019-02-02T21:15:38.191Z,99.90
2019-02-02T21:18:07.423Z,99.90
2019-02-02T21:20:36.662Z,99.90
2019-02-02T21:23:05.974Z,99.90
2019-02-02T21:25:34.870Z,99.90
2019-02-02T21:28:03.849Z,99.90
2019-02-02T21:30:36.260Z,99.90
2019-02-02T21:33:10.921Z,99.90
2019-02-02T21:35:39.886Z,99.90
2019-02-02T21:38:08.962Z,99.90
2019-02-02T21:40:37.865Z,99.90
2019-02-02T21:43:07.167Z,99.90
2019-02-02T21:45:36.664Z,99.90
2019-02-02T21:48:05.983Z,99.90
2019-02-02T21:50:34.902Z,99.90
2019-02-02T21:53:03.907Z,99.90
2019-02-02T21:55:32.889Z,99.90
2019-02-02T21:58:01.815Z,99.90
2019-02-02T22:00:36.345Z,99.90
2019-02-02T22:03:06.501Z,99.90
2019-02-02T22:05:35.513Z,99.90
2019-02-02T22:08:05.476Z,99.90
2019-02-02T22:10:34.568Z,99.90
2019-02-02T22:13:03.477Z,99.90
2019-02-02T22:15:32.357Z,99.90
2019-02-02T22:18:01.240Z,99.90
2019-02-02T22:20:32.752Z,99.90
2019-02-02T22:23:02.036Z,99.90
2019-02-02T22:25:34.158Z,99.90
2019-02-02T22:28:03.033Z,99.90
2019-02-02T22:30:36.705Z,99.90
2019-02-02T22:33:05.961Z,99.90
2019-02-02T22:35:35.086Z,99.90
2019-02-02T22:38:04.555Z,99.90
2019-02-02T22:40:33.463Z,99.90
2019-02-02T22:43:02.367Z,99.90
2019-02-02T22:45:31.444Z,99.90
2019-02-02T22:48:00.308Z,99.90
2019-02-02T22:50:29.532Z,99.90
2019-02-02T22:52:58.454Z,99.90
2019-02-02T22:55:27.449Z,99.90
2019-02-02T22:57:56.486Z,99.90
2019-02-02T23:00:56.444Z,99.90
2019-02-02T23:03:40.414Z,99.90
2019-02-02T23:06:39.279Z,99.90
2019-02-02T23:09:39.471Z,99.90
2019-02-02T23:12:14.089Z,99.90
2019-02-02T23:15:03.726Z,99.90
2019-02-02T23:17:32.642Z,99.90
2019-02-02T23:20:01.729Z,99.90
2019-02-02T23:22:30.655Z,99.90
2019-02-02T23:24:59.601Z,99.90
2019-02-02T23:27:28.546Z,99.90
2019-02-02T23:29:57.396Z,99.90
2019-02-02T23:32:26.330Z,99.90
2019-02-02T23:34:55.385Z,99.90
2019-02-02T23:37:24.366Z,99.90
2019-02-02T23:39:53.294Z,99.90
2019-02-02T23:42:22.224Z,99.90
2019-02-02T23:44:51.160Z,99.90
2019-02-02T23:47:20.330Z,99.90
2019-02-02T23:49:49.242Z,99.90
2019-02-02T23:52:18.163Z,99.90
2019-02-02T23:54:47.949Z,99.90
2019-02-02T23:57:16.992Z,99.90
2019-02-02T23:59:45.885Z,99.90
